sensor_id;sensor_type;location;lat;lon;timestamp;temperature;humidity
23291;DHT22;11814;44.686;10.842;2022-10-16T00:01:22;19.80;99.90
23291;DHT22;11814;44.686;10.842;2022-10-16T00:03:48;19.80;99.90
23291;DHT22;11814;44.686;10.842;2022-10-16T00:06:16;19.80;99.90
23291;DHT22;11814;44.686;10.842;2022-10-16T00:08:43;19.80;99.90
23291;DHT22;11814;44.686;10.842;2022-10-16T00:11:12;19.70;99.90
23291;DHT22;11814;44.686;10.842;2022-10-16T00:13:40;19.70;99.90
23291;DHT22;11814;44.686;10.842;2022-10-16T00:16:06;19.70;99.90
23291;DHT22;11814;44.686;10.842;2022-10-16T00:18:33;19.60;99.90
23291;DHT22;11814;44.686;10.842;2022-10-16T00:21:10;19.70;99.90
23291;DHT22;11814;44.686;10.842;2022-10-16T00:23:36;19.60;99.90
23291;DHT22;11814;44.686;10.842;2022-10-16T00:26:05;19.60;99.90
23291;DHT22;11814;44.686;10.842;2022-10-16T00:28:31;19.60;99.90
23291;DHT22;11814;44.686;10.842;2022-10-16T00:30:57;19.50;99.90
23291;DHT22;11814;44.686;10.842;2022-10-16T00:33:23;19.50;99.90
23291;DHT22;11814;44.686;10.842;2022-10-16T00:35:49;19.50;99.90
23291;DHT22;11814;44.686;10.842;2022-10-16T00:38:16;19.50;99.90
23291;DHT22;11814;44.686;10.842;2022-10-16T00:40:42;19.50;99.90
23291;DHT22;11814;44.686;10.842;2022-10-16T00:46:01;19.40;99.90
23291;DHT22;11814;44.686;10.842;2022-10-16T00:48:27;19.30;99.90
23291;DHT22;11814;44.686;10.842;2022-10-16T00:50:53;19.30;99.90
23291;DHT22;11814;44.686;10.842;2022-10-16T00:53:19;19.20;99.90
23291;DHT22;11814;44.686;10.842;2022-10-16T00:55:45;19.20;99.90
23291;DHT22;11814;44.686;10.842;2022-10-16T00:58:11;19.30;99.90
23291;DHT22;11814;44.686;10.842;2022-10-16T01:00:37;19.20;99.90
23291;DHT22;11814;44.686;10.842;2022-10-16T01:03:21;19.30;99.90
23291;DHT22;11814;44.686;10.842;2022-10-16T01:05:55;19.30;99.90
23291;DHT22;11814;44.686;10.842;2022-10-16T01:08:34;19.20;99.90
23291;DHT22;11814;44.686;10.842;2022-10-16T01:11:25;19.20;99.90
23291;DHT22;11814;44.686;10.842;2022-10-16T01:13:58;19.20;99.90
23291;DHT22;11814;44.686;10.842;2022-10-16T01:16:57;19.20;99.90
23291;DHT22;11814;44.686;10.842;2022-10-16T01:22:25;19.20;99.90
23291;DHT22;11814;44.686;10.842;2022-10-16T01:24:54;19.10;99.90
23291;DHT22;11814;44.686;10.842;2022-10-16T01:27:25;19.10;99.90
23291;DHT22;11814;44.686;10.842;2022-10-16T01:29:56;19.10;99.90
23291;DHT22;11814;44.686;10.842;2022-10-16T01:32:40;19.10;99.90
23291;DHT22;11814;44.686;10.842;2022-10-16T01:36:00;19.10;99.90
23291;DHT22;11814;44.686;10.842;2022-10-16T01:40:58;19.10;99.90
23291;DHT22;11814;44.686;10.842;2022-10-16T01:43:48;19.20;99.90
23291;DHT22;11814;44.686;10.842;2022-10-16T01:46:18;19.10;99.90
23291;DHT22;11814;44.686;10.842;2022-10-16T01:48:45;19.10;99.90
23291;DHT22;11814;44.686;10.842;2022-10-16T01:51:15;19.20;99.90
23291;DHT22;11814;44.686;10.842;2022-10-16T01:53:46;19.20;99.90
23291;DHT22;11814;44.686;10.842;2022-10-16T01:56:13;19.20;99.90
23291;DHT22;11814;44.686;10.842;2022-10-16T01:58:53;19.20;99.90
23291;DHT22;11814;44.686;10.842;2022-10-16T02:01:22;19.20;99.90
23291;DHT22;11814;44.686;10.842;2022-10-16T02:03:51;19.20;99.90
23291;DHT22;11814;44.686;10.842;2022-10-16T02:06:18;19.10;99.90
23291;DHT22;11814;44.686;10.842;2022-10-16T02:08:45;19.10;99.90
23291;DHT22;11814;44.686;10.842;2022-10-16T02:11:11;19.00;99.90
23291;DHT22;11814;44.686;10.842;2022-10-16T02:14:00;19.00;99.90
23291;DHT22;11814;44.686;10.842;2022-10-16T02:16:34;19.00;99.90
23291;DHT22;11814;44.686;10.842;2022-10-16T02:19:00;19.00;99.90
23291;DHT22;11814;44.686;10.842;2022-10-16T02:21:29;19.00;99.90
23291;DHT22;11814;44.686;10.842;2022-10-16T02:29:25;18.90;99.90
23291;DHT22;11814;44.686;10.842;2022-10-16T02:31:58;18.90;99.90
23291;DHT22;11814;44.686;10.842;2022-10-16T02:34:27;18.90;99.90
23291;DHT22;11814;44.686;10.842;2022-10-16T02:36:56;18.80;99.90
23291;DHT22;11814;44.686;10.842;2022-10-16T02:39:22;18.80;99.90
23291;DHT22;11814;44.686;10.842;2022-10-16T02:41:48;18.70;99.90
23291;DHT22;11814;44.686;10.842;2022-10-16T02:44:14;18.60;99.90
23291;DHT22;11814;44.686;10.842;2022-10-16T02:46:40;18.60;99.90
23291;DHT22;11814;44.686;10.842;2022-10-16T02:49:06;18.60;99.90
23291;DHT22;11814;44.686;10.842;2022-10-16T02:51:31;18.60;99.90
23291;DHT22;11814;44.686;10.842;2022-10-16T02:53:57;18.50;99.90
23291;DHT22;11814;44.686;10.842;2022-10-16T02:56:23;18.50;99.90
23291;DHT22;11814;44.686;10.842;2022-10-16T02:58:49;18.50;99.90
23291;DHT22;11814;44.686;10.842;2022-10-16T03:01:15;18.50;99.90
23291;DHT22;11814;44.686;10.842;2022-10-16T03:03:42;18.40;99.90
23291;DHT22;11814;44.686;10.842;2022-10-16T03:06:08;18.30;99.90
23291;DHT22;11814;44.686;10.842;2022-10-16T03:08:34;18.30;99.90
23291;DHT22;11814;44.686;10.842;2022-10-16T03:10:59;18.30;99.90
23291;DHT22;11814;44.686;10.842;2022-10-16T03:13:25;18.20;99.90
23291;DHT22;11814;44.686;10.842;2022-10-16T03:15:51;18.20;99.90
23291;DHT22;11814;44.686;10.842;2022-10-16T03:18:17;18.10;99.90
23291;DHT22;11814;44.686;10.842;2022-10-16T03:20:43;18.20;99.90
23291;DHT22;11814;44.686;10.842;2022-10-16T03:23:09;18.10;99.90
23291;DHT22;11814;44.686;10.842;2022-10-16T03:25:35;18.00;99.90
23291;DHT22;11814;44.686;10.842;2022-10-16T03:28:00;18.00;99.90
23291;DHT22;11814;44.686;10.842;2022-10-16T03:30:27;18.00;99.90
23291;DHT22;11814;44.686;10.842;2022-10-16T03:32:52;17.90;99.90
23291;DHT22;11814;44.686;10.842;2022-10-16T03:35:20;17.90;99.90
23291;DHT22;11814;44.686;10.842;2022-10-16T03:37:45;17.90;99.90
23291;DHT22;11814;44.686;10.842;2022-10-16T03:40:11;17.90;99.90
23291;DHT22;11814;44.686;10.842;2022-10-16T03:42:37;17.80;99.90
23291;DHT22;11814;44.686;10.842;2022-10-16T03:45:04;17.80;99.90
23291;DHT22;11814;44.686;10.842;2022-10-16T03:47:30;17.80;99.90
23291;DHT22;11814;44.686;10.842;2022-10-16T03:49:58;17.80;99.90
23291;DHT22;11814;44.686;10.842;2022-10-16T03:52:24;17.70;99.90
23291;DHT22;11814;44.686;10.842;2022-10-16T03:54:50;17.70;99.90
23291;DHT22;11814;44.686;10.842;2022-10-16T03:57:16;17.70;99.90
23291;DHT22;11814;44.686;10.842;2022-10-16T03:59:41;17.70;99.90
23291;DHT22;11814;44.686;10.842;2022-10-16T04:02:07;17.70;99.90
23291;DHT22;11814;44.686;10.842;2022-10-16T04:04:33;17.60;99.90
23291;DHT22;11814;44.686;10.842;2022-10-16T04:06:58;17.60;99.90
23291;DHT22;11814;44.686;10.842;2022-10-16T04:09:24;17.60;99.90
23291;DHT22;11814;44.686;10.842;2022-10-16T04:11:50;17.60;99.90
23291;DHT22;11814;44.686;10.842;2022-10-16T04:14:16;17.50;99.90
23291;DHT22;11814;44.686;10.842;2022-10-16T04:16:41;17.50;99.90
23291;DHT22;11814;44.686;10.842;2022-10-16T04:19:08;17.50;99.90
23291;DHT22;11814;44.686;10.842;2022-10-16T04:21:34;17.50;99.90
23291;DHT22;11814;44.686;10.842;2022-10-16T04:24:00;17.50;99.90
23291;DHT22;11814;44.686;10.842;2022-10-16T04:26:25;17.40;99.90
23291;DHT22;11814;44.686;10.842;2022-10-16T04:28:51;17.40;99.90
23291;DHT22;11814;44.686;10.842;2022-10-16T04:31:17;17.40;99.90
23291;DHT22;11814;44.686;10.842;2022-10-16T04:33:43;17.40;99.90
23291;DHT22;11814;44.686;10.842;2022-10-16T04:36:09;17.30;99.90
23291;DHT22;11814;44.686;10.842;2022-10-16T04:38:34;17.30;99.90
23291;DHT22;11814;44.686;10.842;2022-10-16T04:41:03;17.30;99.90
23291;DHT22;11814;44.686;10.842;2022-10-16T04:43:29;17.20;99.90
23291;DHT22;11814;44.686;10.842;2022-10-16T04:45:54;17.20;99.90
23291;DHT22;11814;44.686;10.842;2022-10-16T04:48:21;17.10;99.90
23291;DHT22;11814;44.686;10.842;2022-10-16T04:50:47;17.10;99.90
23291;DHT22;11814;44.686;10.842;2022-10-16T04:53:13;17.10;99.90
23291;DHT22;11814;44.686;10.842;2022-10-16T04:55:39;17.00;99.90
23291;DHT22;11814;44.686;10.842;2022-10-16T04:58:05;17.00;99.90
23291;DHT22;11814;44.686;10.842;2022-10-16T05:00:31;17.00;99.90
23291;DHT22;11814;44.686;10.842;2022-10-16T05:02:56;17.00;99.90
23291;DHT22;11814;44.686;10.842;2022-10-16T05:05:23;16.90;99.90
23291;DHT22;11814;44.686;10.842;2022-10-16T05:07:49;16.90;99.90
23291;DHT22;11814;44.686;10.842;2022-10-16T05:10:15;16.90;99.90
23291;DHT22;11814;44.686;10.842;2022-10-16T05:12:41;16.80;99.90
23291;DHT22;11814;44.686;10.842;2022-10-16T05:15:07;16.80;99.90
23291;DHT22;11814;44.686;10.842;2022-10-16T05:17:33;16.70;99.90
23291;DHT22;11814;44.686;10.842;2022-10-16T05:19:58;16.70;99.90
23291;DHT22;11814;44.686;10.842;2022-10-16T05:22:24;16.70;99.90
23291;DHT22;11814;44.686;10.842;2022-10-16T05:24:50;16.70;99.90
23291;DHT22;11814;44.686;10.842;2022-10-16T05:27:16;16.70;99.90
23291;DHT22;11814;44.686;10.842;2022-10-16T05:29:48;16.70;99.90
23291;DHT22;11814;44.686;10.842;2022-10-16T05:32:18;16.60;99.90
23291;DHT22;11814;44.686;10.842;2022-10-16T05:34:45;16.60;99.90
23291;DHT22;11814;44.686;10.842;2022-10-16T05:37:10;16.50;99.90
23291;DHT22;11814;44.686;10.842;2022-10-16T05:39:37;16.50;99.90
23291;DHT22;11814;44.686;10.842;2022-10-16T05:42:04;16.50;99.90
23291;DHT22;11814;44.686;10.842;2022-10-16T05:44:30;16.50;99.90
23291;DHT22;11814;44.686;10.842;2022-10-16T05:46:56;16.50;99.90
23291;DHT22;11814;44.686;10.842;2022-10-16T05:49:21;16.50;99.90
23291;DHT22;11814;44.686;10.842;2022-10-16T05:51:47;16.50;99.90
23291;DHT22;11814;44.686;10.842;2022-10-16T05:54:13;16.50;99.90
23291;DHT22;11814;44.686;10.842;2022-10-16T05:56:39;16.60;99.90
23291;DHT22;11814;44.686;10.842;2022-10-16T05:59:05;16.50;99.90
23291;DHT22;11814;44.686;10.842;2022-10-16T06:01:31;16.50;99.90
23291;DHT22;11814;44.686;10.842;2022-10-16T06:03:57;16.70;99.90
23291;DHT22;11814;44.686;10.842;2022-10-16T06:06:24;16.60;99.90
23291;DHT22;11814;44.686;10.842;2022-10-16T06:08:52;16.50;99.90
23291;DHT22;11814;44.686;10.842;2022-10-16T06:11:26;16.60;99.90
23291;DHT22;11814;44.686;10.842;2022-10-16T06:13:54;16.60;99.90
23291;DHT22;11814;44.686;10.842;2022-10-16T06:16:20;16.70;99.90
23291;DHT22;11814;44.686;10.842;2022-10-16T06:18:46;16.80;99.90
23291;DHT22;11814;44.686;10.842;2022-10-16T06:21:16;16.80;99.90
23291;DHT22;11814;44.686;10.842;2022-10-16T06:23:42;16.90;99.90
23291;DHT22;11814;44.686;10.842;2022-10-16T06:26:11;16.90;99.90
23291;DHT22;11814;44.686;10.842;2022-10-16T06:28:37;16.90;99.90
23291;DHT22;11814;44.686;10.842;2022-10-16T06:31:04;16.90;99.90
23291;DHT22;11814;44.686;10.842;2022-10-16T06:33:30;17.00;99.90
23291;DHT22;11814;44.686;10.842;2022-10-16T06:36:10;17.00;99.90
23291;DHT22;11814;44.686;10.842;2022-10-16T06:38:37;17.20;99.90
23291;DHT22;11814;44.686;10.842;2022-10-16T06:41:03;17.40;99.90
23291;DHT22;11814;44.686;10.842;2022-10-16T06:43:30;17.50;99.90
23291;DHT22;11814;44.686;10.842;2022-10-16T06:46:01;17.60;99.90
23291;DHT22;11814;44.686;10.842;2022-10-16T06:48:28;17.70;99.90
23291;DHT22;11814;44.686;10.842;2022-10-16T06:51:02;17.80;99.90
23291;DHT22;11814;44.686;10.842;2022-10-16T06:53:31;17.90;99.90
23291;DHT22;11814;44.686;10.842;2022-10-16T06:55:57;18.00;99.90
23291;DHT22;11814;44.686;10.842;2022-10-16T06:58:23;18.10;99.90
23291;DHT22;11814;44.686;10.842;2022-10-16T07:00:55;18.20;99.90
23291;DHT22;11814;44.686;10.842;2022-10-16T07:03:21;18.30;99.90
23291;DHT22;11814;44.686;10.842;2022-10-16T07:05:47;18.30;99.90
23291;DHT22;11814;44.686;10.842;2022-10-16T07:08:13;18.40;99.90
23291;DHT22;11814;44.686;10.842;2022-10-16T07:10:39;18.50;99.90
23291;DHT22;11814;44.686;10.842;2022-10-16T07:13:05;18.60;99.90
23291;DHT22;11814;44.686;10.842;2022-10-16T07:15:32;18.60;99.90
23291;DHT22;11814;44.686;10.842;2022-10-16T07:17:58;18.70;99.90
23291;DHT22;11814;44.686;10.842;2022-10-16T07:20:24;18.80;99.90
23291;DHT22;11814;44.686;10.842;2022-10-16T07:22:50;18.90;99.90
23291;DHT22;11814;44.686;10.842;2022-10-16T07:25:16;18.90;99.90
23291;DHT22;11814;44.686;10.842;2022-10-16T07:27:42;19.10;99.90
23291;DHT22;11814;44.686;10.842;2022-10-16T07:30:08;19.20;99.90
23291;DHT22;11814;44.686;10.842;2022-10-16T07:32:34;19.30;99.90
23291;DHT22;11814;44.686;10.842;2022-10-16T07:35:00;19.40;99.90
23291;DHT22;11814;44.686;10.842;2022-10-16T07:37:25;19.50;99.90
23291;DHT22;11814;44.686;10.842;2022-10-16T07:39:51;19.60;99.90
23291;DHT22;11814;44.686;10.842;2022-10-16T07:42:17;19.70;99.90
23291;DHT22;11814;44.686;10.842;2022-10-16T07:44:43;19.90;99.90
23291;DHT22;11814;44.686;10.842;2022-10-16T07:47:09;20.10;99.90
23291;DHT22;11814;44.686;10.842;2022-10-16T07:49:34;20.40;99.90
23291;DHT22;11814;44.686;10.842;2022-10-16T07:52:00;20.60;99.90
23291;DHT22;11814;44.686;10.842;2022-10-16T07:54:26;21.00;99.90
23291;DHT22;11814;44.686;10.842;2022-10-16T07:56:51;21.50;99.90
23291;DHT22;11814;44.686;10.842;2022-10-16T07:59:17;21.70;99.90
23291;DHT22;11814;44.686;10.842;2022-10-16T08:01:43;22.00;99.90
23291;DHT22;11814;44.686;10.842;2022-10-16T08:04:09;22.30;99.90
23291;DHT22;11814;44.686;10.842;2022-10-16T08:06:39;22.40;98.20
23291;DHT22;11814;44.686;10.842;2022-10-16T08:09:09;22.40;97.20
23291;DHT22;11814;44.686;10.842;2022-10-16T08:11:34;22.50;96.70
23291;DHT22;11814;44.686;10.842;2022-10-16T08:14:01;22.40;96.00
23291;DHT22;11814;44.686;10.842;2022-10-16T08:16:26;22.40;95.50
23291;DHT22;11814;44.686;10.842;2022-10-16T08:18:52;22.30;95.40
23291;DHT22;11814;44.686;10.842;2022-10-16T08:21:21;22.30;95.30
23291;DHT22;11814;44.686;10.842;2022-10-16T08:23:49;22.30;95.30
23291;DHT22;11814;44.686;10.842;2022-10-16T08:26:15;22.20;95.20
23291;DHT22;11814;44.686;10.842;2022-10-16T08:28:41;22.30;95.30
23291;DHT22;11814;44.686;10.842;2022-10-16T08:31:14;22.30;95.30
23291;DHT22;11814;44.686;10.842;2022-10-16T08:33:42;22.40;95.60
23291;DHT22;11814;44.686;10.842;2022-10-16T08:36:10;22.50;95.70
23291;DHT22;11814;44.686;10.842;2022-10-16T08:38:36;22.60;95.50
23291;DHT22;11814;44.686;10.842;2022-10-16T08:49:30;23.30;95.60
23291;DHT22;11814;44.686;10.842;2022-10-16T08:51:56;23.80;95.40
23291;DHT22;11814;44.686;10.842;2022-10-16T08:54:36;24.30;94.90
23291;DHT22;11814;44.686;10.842;2022-10-16T08:59:37;25.50;92.00
23291;DHT22;11814;44.686;10.842;2022-10-16T09:15:40;26.60;83.50
23291;DHT22;11814;44.686;10.842;2022-10-16T09:21:09;26.30;82.20
23291;DHT22;11814;44.686;10.842;2022-10-16T09:23:37;26.10;82.10
23291;DHT22;11814;44.686;10.842;2022-10-16T09:26:05;25.80;82.40
23291;DHT22;11814;44.686;10.842;2022-10-16T09:28:35;25.70;82.70
23291;DHT22;11814;44.686;10.842;2022-10-16T09:31:01;25.50;82.90
23291;DHT22;11814;44.686;10.842;2022-10-16T09:33:33;25.30;82.70
23291;DHT22;11814;44.686;10.842;2022-10-16T09:36:03;25.20;82.90
23291;DHT22;11814;44.686;10.842;2022-10-16T09:38:34;25.00;83.10
23291;DHT22;11814;44.686;10.842;2022-10-16T09:41:35;24.90;83.50
23291;DHT22;11814;44.686;10.842;2022-10-16T09:44:01;24.90;83.90
23291;DHT22;11814;44.686;10.842;2022-10-16T09:46:32;25.00;84.20
23291;DHT22;11814;44.686;10.842;2022-10-16T09:49:04;25.10;84.00
23291;DHT22;11814;44.686;10.842;2022-10-16T09:51:33;25.20;84.00
23291;DHT22;11814;44.686;10.842;2022-10-16T09:54:20;25.30;83.90
23291;DHT22;11814;44.686;10.842;2022-10-16T09:56:47;25.40;83.70
23291;DHT22;11814;44.686;10.842;2022-10-16T09:59:21;25.50;83.10
23291;DHT22;11814;44.686;10.842;2022-10-16T10:01:55;25.50;82.60
23291;DHT22;11814;44.686;10.842;2022-10-16T10:04:23;25.60;82.10
23291;DHT22;11814;44.686;10.842;2022-10-16T10:09:23;25.60;81.00
23291;DHT22;11814;44.686;10.842;2022-10-16T10:11:54;25.50;80.00
23291;DHT22;11814;44.686;10.842;2022-10-16T10:14:37;25.30;79.80
23291;DHT22;11814;44.686;10.842;2022-10-16T10:17:15;25.20;80.30
23291;DHT22;11814;44.686;10.842;2022-10-16T10:19:46;25.30;80.90
23291;DHT22;11814;44.686;10.842;2022-10-16T10:22:40;25.40;81.00
23291;DHT22;11814;44.686;10.842;2022-10-16T10:30:34;25.70;80.00
23291;DHT22;11814;44.686;10.842;2022-10-16T10:38:33;25.90;78.60
23291;DHT22;11814;44.686;10.842;2022-10-16T10:44:21;26.30;77.50
23291;DHT22;11814;44.686;10.842;2022-10-16T10:49:48;26.80;76.20
23291;DHT22;11814;44.686;10.842;2022-10-16T11:00:42;27.10;74.60
23291;DHT22;11814;44.686;10.842;2022-10-16T11:05:45;27.10;74.20
23291;DHT22;11814;44.686;10.842;2022-10-16T11:08:19;27.10;74.00
23291;DHT22;11814;44.686;10.842;2022-10-16T11:10:57;27.10;73.80
23291;DHT22;11814;44.686;10.842;2022-10-16T11:13:35;26.90;73.80
23291;DHT22;11814;44.686;10.842;2022-10-16T11:16:14;26.70;73.90
23291;DHT22;11814;44.686;10.842;2022-10-16T11:21:39;26.40;74.50
23291;DHT22;11814;44.686;10.842;2022-10-16T11:24:16;26.40;74.40
23291;DHT22;11814;44.686;10.842;2022-10-16T11:26:45;26.20;74.60
23291;DHT22;11814;44.686;10.842;2022-10-16T11:29:23;26.20;74.40
23291;DHT22;11814;44.686;10.842;2022-10-16T11:31:55;26.10;73.40
23291;DHT22;11814;44.686;10.842;2022-10-16T11:34:26;26.00;73.40
23291;DHT22;11814;44.686;10.842;2022-10-16T11:36:58;26.00;73.20
23291;DHT22;11814;44.686;10.842;2022-10-16T11:39:29;26.00;73.30
23291;DHT22;11814;44.686;10.842;2022-10-16T11:47:39;25.90;74.90
23291;DHT22;11814;44.686;10.842;2022-10-16T11:50:28;25.90;75.00
23291;DHT22;11814;44.686;10.842;2022-10-16T11:56:04;26.00;75.90
23291;DHT22;11814;44.686;10.842;2022-10-16T12:06:23;26.20;75.40
23291;DHT22;11814;44.686;10.842;2022-10-16T12:08:52;26.20;75.00
23291;DHT22;11814;44.686;10.842;2022-10-16T12:19:20;26.00;75.00
23291;DHT22;11814;44.686;10.842;2022-10-16T12:21:46;26.10;74.80
23291;DHT22;11814;44.686;10.842;2022-10-16T12:26:52;26.20;74.40
23291;DHT22;11814;44.686;10.842;2022-10-16T12:30:03;26.20;74.30
23291;DHT22;11814;44.686;10.842;2022-10-16T12:32:36;26.20;73.90
23291;DHT22;11814;44.686;10.842;2022-10-16T12:35:05;26.30;74.00
23291;DHT22;11814;44.686;10.842;2022-10-16T12:37:34;26.20;73.80
23291;DHT22;11814;44.686;10.842;2022-10-16T12:42:47;26.20;73.90
23291;DHT22;11814;44.686;10.842;2022-10-16T12:45:33;26.20;74.20
23291;DHT22;11814;44.686;10.842;2022-10-16T12:48:04;26.20;73.90
23291;DHT22;11814;44.686;10.842;2022-10-16T12:52:59;26.10;74.20
23291;DHT22;11814;44.686;10.842;2022-10-16T12:55:26;26.00;74.20
23291;DHT22;11814;44.686;10.842;2022-10-16T12:58:18;25.80;74.10
23291;DHT22;11814;44.686;10.842;2022-10-16T13:01:17;25.70;74.50
23291;DHT22;11814;44.686;10.842;2022-10-16T13:17:46;25.30;75.30
23291;DHT22;11814;44.686;10.842;2022-10-16T13:23:17;25.20;75.30
23291;DHT22;11814;44.686;10.842;2022-10-16T13:28:35;25.20;75.20
23291;DHT22;11814;44.686;10.842;2022-10-16T13:31:03;25.10;75.20
23291;DHT22;11814;44.686;10.842;2022-10-16T13:33:36;25.10;75.20
23291;DHT22;11814;44.686;10.842;2022-10-16T13:36:03;25.20;75.70
23291;DHT22;11814;44.686;10.842;2022-10-16T13:38:33;25.10;76.30
23291;DHT22;11814;44.686;10.842;2022-10-16T13:41:02;25.10;75.30
23291;DHT22;11814;44.686;10.842;2022-10-16T13:46:07;25.10;75.00
23291;DHT22;11814;44.686;10.842;2022-10-16T13:48:36;25.10;74.80
23291;DHT22;11814;44.686;10.842;2022-10-16T13:51:14;25.10;74.80
23291;DHT22;11814;44.686;10.842;2022-10-16T13:53:41;25.10;74.80
23291;DHT22;11814;44.686;10.842;2022-10-16T13:56:20;25.10;74.90
23291;DHT22;11814;44.686;10.842;2022-10-16T13:58:57;25.10;75.00
23291;DHT22;11814;44.686;10.842;2022-10-16T14:01:26;25.00;74.80
23291;DHT22;11814;44.686;10.842;2022-10-16T14:03:59;25.00;74.70
23291;DHT22;11814;44.686;10.842;2022-10-16T14:06:26;25.00;74.60
23291;DHT22;11814;44.686;10.842;2022-10-16T14:09:05;24.90;74.70
23291;DHT22;11814;44.686;10.842;2022-10-16T14:11:32;24.90;74.60
23291;DHT22;11814;44.686;10.842;2022-10-16T14:13:59;24.90;74.60
23291;DHT22;11814;44.686;10.842;2022-10-16T14:16:30;24.80;74.50
23291;DHT22;11814;44.686;10.842;2022-10-16T14:19:04;24.80;74.30
23291;DHT22;11814;44.686;10.842;2022-10-16T14:21:35;24.80;74.20
23291;DHT22;11814;44.686;10.842;2022-10-16T14:24:26;24.80;74.40
23291;DHT22;11814;44.686;10.842;2022-10-16T14:26:52;24.80;74.30
23291;DHT22;11814;44.686;10.842;2022-10-16T14:29:20;24.80;74.30
23291;DHT22;11814;44.686;10.842;2022-10-16T14:31:59;24.80;74.30
23291;DHT22;11814;44.686;10.842;2022-10-16T14:34:28;24.80;74.10
23291;DHT22;11814;44.686;10.842;2022-10-16T14:36:56;24.80;74.10
23291;DHT22;11814;44.686;10.842;2022-10-16T14:39:23;24.70;73.90
23291;DHT22;11814;44.686;10.842;2022-10-16T14:41:55;24.70;73.90
23291;DHT22;11814;44.686;10.842;2022-10-16T14:44:28;24.70;73.90
23291;DHT22;11814;44.686;10.842;2022-10-16T14:46:55;24.70;74.00
23291;DHT22;11814;44.686;10.842;2022-10-16T14:49:22;24.70;74.10
23291;DHT22;11814;44.686;10.842;2022-10-16T14:51:49;24.60;74.20
23291;DHT22;11814;44.686;10.842;2022-10-16T14:54:16;24.60;74.30
23291;DHT22;11814;44.686;10.842;2022-10-16T14:56:51;24.60;74.60
23291;DHT22;11814;44.686;10.842;2022-10-16T14:59:37;24.60;74.60
23291;DHT22;11814;44.686;10.842;2022-10-16T15:02:30;24.60;74.70
23291;DHT22;11814;44.686;10.842;2022-10-16T15:04:57;24.60;74.80
23291;DHT22;11814;44.686;10.842;2022-10-16T15:07:23;24.50;74.90
23291;DHT22;11814;44.686;10.842;2022-10-16T15:09:49;24.50;75.10
23291;DHT22;11814;44.686;10.842;2022-10-16T15:12:16;24.50;75.20
23291;DHT22;11814;44.686;10.842;2022-10-16T15:14:42;24.40;75.10
23291;DHT22;11814;44.686;10.842;2022-10-16T15:17:09;24.40;75.10
23291;DHT22;11814;44.686;10.842;2022-10-16T15:19:35;24.40;75.20
23291;DHT22;11814;44.686;10.842;2022-10-16T15:22:01;24.40;75.10
23291;DHT22;11814;44.686;10.842;2022-10-16T15:24:27;24.40;75.30
23291;DHT22;11814;44.686;10.842;2022-10-16T15:26:53;24.40;75.40
23291;DHT22;11814;44.686;10.842;2022-10-16T15:29:18;24.40;75.50
23291;DHT22;11814;44.686;10.842;2022-10-16T15:31:44;24.40;75.90
23291;DHT22;11814;44.686;10.842;2022-10-16T15:34:13;24.30;76.30
23291;DHT22;11814;44.686;10.842;2022-10-16T15:36:39;24.30;76.60
23291;DHT22;11814;44.686;10.842;2022-10-16T15:39:16;24.20;76.70
23291;DHT22;11814;44.686;10.842;2022-10-16T15:41:42;24.20;77.10
23291;DHT22;11814;44.686;10.842;2022-10-16T15:44:11;24.20;77.20
23291;DHT22;11814;44.686;10.842;2022-10-16T15:46:37;24.20;77.50
23291;DHT22;11814;44.686;10.842;2022-10-16T15:49:03;24.20;77.80
23291;DHT22;11814;44.686;10.842;2022-10-16T15:51:29;24.10;77.90
23291;DHT22;11814;44.686;10.842;2022-10-16T15:53:59;24.10;78.20
23291;DHT22;11814;44.686;10.842;2022-10-16T15:56:27;24.10;78.30
23291;DHT22;11814;44.686;10.842;2022-10-16T15:58:54;24.10;78.30
23291;DHT22;11814;44.686;10.842;2022-10-16T16:01:20;24.00;78.30
23291;DHT22;11814;44.686;10.842;2022-10-16T16:03:46;24.00;78.50
23291;DHT22;11814;44.686;10.842;2022-10-16T16:06:13;24.00;78.90
23291;DHT22;11814;44.686;10.842;2022-10-16T16:08:39;24.00;79.00
23291;DHT22;11814;44.686;10.842;2022-10-16T16:11:07;23.90;79.00
23291;DHT22;11814;44.686;10.842;2022-10-16T16:13:34;23.90;79.40
23291;DHT22;11814;44.686;10.842;2022-10-16T16:16:00;23.90;79.80
23291;DHT22;11814;44.686;10.842;2022-10-16T16:18:26;23.80;79.90
23291;DHT22;11814;44.686;10.842;2022-10-16T16:20:52;23.80;80.30
23291;DHT22;11814;44.686;10.842;2022-10-16T16:23:18;23.70;80.60
23291;DHT22;11814;44.686;10.842;2022-10-16T16:25:45;23.70;80.90
23291;DHT22;11814;44.686;10.842;2022-10-16T16:28:27;23.60;81.20
23291;DHT22;11814;44.686;10.842;2022-10-16T16:30:52;23.60;81.40
23291;DHT22;11814;44.686;10.842;2022-10-16T16:33:18;23.50;81.60
23291;DHT22;11814;44.686;10.842;2022-10-16T16:35:44;23.50;81.70
23291;DHT22;11814;44.686;10.842;2022-10-16T16:38:09;23.40;81.70
23291;DHT22;11814;44.686;10.842;2022-10-16T16:40:35;23.40;81.90
23291;DHT22;11814;44.686;10.842;2022-10-16T16:43:01;23.40;82.10
23291;DHT22;11814;44.686;10.842;2022-10-16T16:45:27;23.30;82.10
23291;DHT22;11814;44.686;10.842;2022-10-16T16:47:53;23.30;81.60
23291;DHT22;11814;44.686;10.842;2022-10-16T16:50:19;23.20;81.60
23291;DHT22;11814;44.686;10.842;2022-10-16T16:52:44;23.20;81.60
23291;DHT22;11814;44.686;10.842;2022-10-16T16:55:10;23.20;81.70
23291;DHT22;11814;44.686;10.842;2022-10-16T16:57:36;23.20;81.90
23291;DHT22;11814;44.686;10.842;2022-10-16T17:00:03;23.20;82.10
23291;DHT22;11814;44.686;10.842;2022-10-16T17:02:29;23.20;82.30
23291;DHT22;11814;44.686;10.842;2022-10-16T17:04:54;23.10;82.40
23291;DHT22;11814;44.686;10.842;2022-10-16T17:07:22;23.10;82.50
23291;DHT22;11814;44.686;10.842;2022-10-16T17:09:48;23.00;82.50
23291;DHT22;11814;44.686;10.842;2022-10-16T17:12:14;23.00;82.40
23291;DHT22;11814;44.686;10.842;2022-10-16T17:14:40;23.00;82.30
23291;DHT22;11814;44.686;10.842;2022-10-16T17:17:06;23.00;82.20
23291;DHT22;11814;44.686;10.842;2022-10-16T17:19:32;22.90;82.10
23291;DHT22;11814;44.686;10.842;2022-10-16T17:21:58;22.90;82.30
23291;DHT22;11814;44.686;10.842;2022-10-16T17:24:23;22.80;82.60
23291;DHT22;11814;44.686;10.842;2022-10-16T17:26:49;22.80;83.10
23291;DHT22;11814;44.686;10.842;2022-10-16T17:29:16;22.80;83.30
23291;DHT22;11814;44.686;10.842;2022-10-16T17:31:42;22.80;83.70
23291;DHT22;11814;44.686;10.842;2022-10-16T17:34:09;22.70;84.20
23291;DHT22;11814;44.686;10.842;2022-10-16T17:36:38;22.60;84.60